<?xml version="1.0" encoding="UTF-8" standalone="no" ?><gpx xmlns="http://www.topografix.com/GPX/1/1" xmlns:gpxx="http://www.garmin.com/xmlschemas/GpxExtensions/v3" xmlns:gpxtrkx="http://www.garmin.com/xmlschemas/TrackStatsExtension/v1" xmlns:wptx1="http://www.garmin.com/xmlschemas/WaypointExtension/v1" xmlns:gpxtpx="http://www.garmin.com/xmlschemas/TrackPointExtension/v1" creator="Oregon 700" version="1.1" xmlns:xsi="http://www.w3.org/2001/XMLSchema-instance" xsi:schemaLocation="http://www.topografix.com/GPX/1/1 http://www.topografix.com/GPX/1/1/gpx.xsd http://www.garmin.com/xmlschemas/GpxExtensions/v3 http://www8.garmin.com/xmlschemas/GpxExtensionsv3.xsd http://www.garmin.com/xmlschemas/TrackStatsExtension/v1 http://www8.garmin.com/xmlschemas/TrackStatsExtension.xsd http://www.garmin.com/xmlschemas/WaypointExtension/v1 http://www8.garmin.com/xmlschemas/WaypointExtensionv1.xsd http://www.garmin.com/xmlschemas/TrackPointExtension/v1 http://www.garmin.com/xmlschemas/TrackPointExtensionv1.xsd"><metadata><link href="http://www.garmin.com"><text>Garmin International</text></link><time>2024-01-17T21:06:18Z</time></metadata><trk><name>Current Track: 17 JAN 2024 09:54</name><extensions><gpxx:TrackExtension><gpxx:DisplayColor>Cyan</gpxx:DisplayColor></gpxx:TrackExtension><gpxtrkx:TrackStatsExtension><gpxtrkx:Distance>5082.000</gpxtrkx:Distance><gpxtrkx:TimerTime>7574</gpxtrkx:TimerTime><gpxtrkx:TotalElapsedTime>40333</gpxtrkx:TotalElapsedTime><gpxtrkx:MovingTime>6257</gpxtrkx:MovingTime><gpxtrkx:StoppedTime>1317</gpxtrkx:StoppedTime><gpxtrkx:MovingSpeed>0.812</gpxtrkx:MovingSpeed><gpxtrkx:MaxSpeed>1.139</gpxtrkx:MaxSpeed><gpxtrkx:MaxElevation>132.532</gpxtrkx:MaxElevation><gpxtrkx:MinElevation>117.940</gpxtrkx:MinElevation><gpxtrkx:Ascent>45.000</gpxtrkx:Ascent><gpxtrkx:Descent>42.301</gpxtrkx:Descent><gpxtrkx:AvgAscentRate>0.026</gpxtrkx:AvgAscentRate><gpxtrkx:MaxAscentRate>0.037</gpxtrkx:MaxAscentRate><gpxtrkx:AvgDescentRate>0.040</gpxtrkx:AvgDescentRate><gpxtrkx:MaxDescentRate>-0.028</gpxtrkx:MaxDescentRate><gpxtrkx:Calories>236</gpxtrkx:Calories></gpxtrkx:TrackStatsExtension></extensions><trkseg><trkpt lat="51.7666405253" lon="-2.3679678608"><ele>125.92</ele><time>2024-01-17T09:54:05Z</time></trkpt><trkpt lat="51.7666367535" lon="-2.3679819424"><ele>127.34</ele><time>2024-01-17T09:54:36Z</time></trkpt><trkpt lat="51.7666305508" lon="-2.3679858819"><ele>126.71</ele><time>2024-01-17T09:54:56Z</time></trkpt><trkpt lat="51.7666301318" lon="-2.3679961916"><ele>126.67</ele><time>2024-01-17T09:55:17Z</time></trkpt><trkpt lat="51.7666581273" lon="-2.3680831958"><ele>126.67</ele><time>2024-01-17T09:55:36Z</time></trkpt><trkpt lat="51.7666454706" lon="-2.3682160489"><ele>126.67</ele><time>2024-01-17T09:55:51Z</time></trkpt><trkpt lat="51.7665355839" lon="-2.3684130237"><ele>126.67</ele><time>2024-01-17T09:56:12Z</time></trkpt><trkpt lat="51.7663969472" lon="-2.3685275204"><ele>126.67</ele><time>2024-01-17T09:56:35Z</time></trkpt><trkpt lat="51.7662792653" lon="-2.3686684202"><ele>126.67</ele><time>2024-01-17T09:56:55Z</time></trkpt><trkpt lat="51.7661277205" lon="-2.3688566778"><ele>126.67</ele><time>2024-01-17T09:57:20Z</time></trkpt><trkpt lat="51.7659982201" lon="-2.3690138385"><ele>126.67</ele><time>2024-01-17T09:57:40Z</time></trkpt><trkpt lat="51.7658821307" lon="-2.3691649642"><ele>126.67</ele><time>2024-01-17T09:57:59Z</time></trkpt><trkpt lat="51.7657797039" lon="-2.3692762759"><ele>126.67</ele><time>2024-01-17T09:58:17Z</time></trkpt><trkpt lat="51.7656247225" lon="-2.3693936225"><ele>126.67</ele><time>2024-01-17T09:58:35Z</time></trkpt><trkpt lat="51.7655072082" lon="-2.3694424052"><ele>126.67</ele><time>2024-01-17T09:58:52Z</time></trkpt><trkpt lat="51.7653583456" lon="-2.3695056885"><ele>126.67</ele><time>2024-01-17T09:59:10Z</time></trkpt><trkpt lat="51.7652731016" lon="-2.3696972989"><ele>125.73</ele><time>2024-01-17T09:59:29Z</time></trkpt><trkpt lat="51.7651450261" lon="-2.3698427249"><ele>125.50</ele><time>2024-01-17T09:59:49Z</time></trkpt><trkpt lat="51.7650612071" lon="-2.3699125461"><ele>125.84</ele><time>2024-01-17T10:00:07Z</time></trkpt><trkpt lat="51.7649403401" lon="-2.3699937668"><ele>125.25</ele><time>2024-01-17T10:00:26Z</time></trkpt><trkpt lat="51.7647807486" lon="-2.3700483330"><ele>125.25</ele><time>2024-01-17T10:00:48Z</time></trkpt><trkpt lat="51.7646702752" lon="-2.3701040726"><ele>125.25</ele><time>2024-01-17T10:01:09Z</time></trkpt><trkpt lat="51.7645701952" lon="-2.3701945134"><ele>125.25</ele><time>2024-01-17T10:01:29Z</time></trkpt><trkpt lat="51.7644322291" lon="-2.3703331500"><ele>125.25</ele><time>2024-01-17T10:01:48Z</time></trkpt><trkpt lat="51.7643194087" lon="-2.3704542685"><ele>125.25</ele><time>2024-01-17T10:02:07Z</time></trkpt><trkpt lat="51.7641892377" lon="-2.3705912288"><ele>125.25</ele><time>2024-01-17T10:02:23Z</time></trkpt><trkpt lat="51.7640983779" lon="-2.3706658278"><ele>125.25</ele><time>2024-01-17T10:02:42Z</time></trkpt><trkpt lat="51.7640064284" lon="-2.3707630578"><ele>125.25</ele><time>2024-01-17T10:03:01Z</time></trkpt><trkpt lat="51.7639113776" lon="-2.3708272632"><ele>125.25</ele><time>2024-01-17T10:03:21Z</time></trkpt><trkpt lat="51.7637699749" lon="-2.3709404189"><ele>125.25</ele><time>2024-01-17T10:03:42Z</time></trkpt><trkpt lat="51.7636863235" lon="-2.3709656484"><ele>125.25</ele><time>2024-01-17T10:04:10Z</time></trkpt><trkpt lat="51.7636501137" lon="-2.3709338810"><ele>125.25</ele><time>2024-01-17T10:04:29Z</time></trkpt><trkpt lat="51.7636619322" lon="-2.3709403351"><ele>125.25</ele><time>2024-01-17T10:04:48Z</time></trkpt><trkpt lat="51.7636606749" lon="-2.3709129263"><ele>125.25</ele><time>2024-01-17T10:05:04Z</time></trkpt><trkpt lat="51.7636782769" lon="-2.3709400836"><ele>125.25</ele><time>2024-01-17T10:05:22Z</time></trkpt><trkpt lat="51.7635424063" lon="-2.3710832465"><ele>125.25</ele><time>2024-01-17T10:05:42Z</time></trkpt><trkpt lat="51.7633709963" lon="-2.3712519743"><ele>125.25</ele><time>2024-01-17T10:06:04Z</time></trkpt><trkpt lat="51.7632953078" lon="-2.3713549878"><ele>125.25</ele><time>2024-01-17T10:06:24Z</time></trkpt><trkpt lat="51.7631264124" lon="-2.3715175968"><ele>125.25</ele><time>2024-01-17T10:06:47Z</time></trkpt><trkpt lat="51.7629715148" lon="-2.3716334347"><ele>125.25</ele><time>2024-01-17T10:07:05Z</time></trkpt><trkpt lat="51.7628412601" lon="-2.3717030045"><ele>125.25</ele><time>2024-01-17T10:07:23Z</time></trkpt><trkpt lat="51.7627091613" lon="-2.3718248773"><ele>125.25</ele><time>2024-01-17T10:07:42Z</time></trkpt><trkpt lat="51.7625854444" lon="-2.3719443195"><ele>125.25</ele><time>2024-01-17T10:08:00Z</time></trkpt><trkpt lat="51.7624634877" lon="-2.3720281385"><ele>125.25</ele><time>2024-01-17T10:08:19Z</time></trkpt><trkpt lat="51.7623882182" lon="-2.3721386958"><ele>125.25</ele><time>2024-01-17T10:08:38Z</time></trkpt><trkpt lat="51.7622419540" lon="-2.3723051604"><ele>125.25</ele><time>2024-01-17T10:09:00Z</time></trkpt><trkpt lat="51.7621451430" lon="-2.3724230938"><ele>125.25</ele><time>2024-01-17T10:09:19Z</time></trkpt><trkpt lat="51.7619489226" lon="-2.3726451304"><ele>125.25</ele><time>2024-01-17T10:09:40Z</time></trkpt><trkpt lat="51.7617737409" lon="-2.3728403449"><ele>125.25</ele><time>2024-01-17T10:10:00Z</time></trkpt><trkpt lat="51.7617133912" lon="-2.3728904687"><ele>125.25</ele><time>2024-01-17T10:10:20Z</time></trkpt><trkpt lat="51.7616935261" lon="-2.3729152791"><ele>125.25</ele><time>2024-01-17T10:10:48Z</time></trkpt><trkpt lat="51.7616905924" lon="-2.3729240801"><ele>125.25</ele><time>2024-01-17T10:11:08Z</time></trkpt><trkpt lat="51.7616986390" lon="-2.3729322106"><ele>125.25</ele><time>2024-01-17T10:11:30Z</time></trkpt><trkpt lat="51.7616013251" lon="-2.3729579430"><ele>125.25</ele><time>2024-01-17T10:11:53Z</time></trkpt><trkpt lat="51.7614132352" lon="-2.3730602022"><ele>125.25</ele><time>2024-01-17T10:12:14Z</time></trkpt><trkpt lat="51.7612714972" lon="-2.3731240723"><ele>125.99</ele><time>2024-01-17T10:12:31Z</time></trkpt><trkpt lat="51.7611594312" lon="-2.3731639702"><ele>124.71</ele><time>2024-01-17T10:12:45Z</time></trkpt><trkpt lat="51.7611062061" lon="-2.3731791414"><ele>127.74</ele><time>2024-01-17T10:12:51Z</time></trkpt><trkpt lat="51.7609422561" lon="-2.3732392397"><ele>125.74</ele><time>2024-01-17T10:13:13Z</time></trkpt><trkpt lat="51.7608363926" lon="-2.3732641339"><ele>125.67</ele><time>2024-01-17T10:13:34Z</time></trkpt><trkpt lat="51.7606731970" lon="-2.3733693268"><ele>125.71</ele><time>2024-01-17T10:13:52Z</time></trkpt><trkpt lat="51.7605494801" lon="-2.3734551575"><ele>126.02</ele><time>2024-01-17T10:14:09Z</time></trkpt><trkpt lat="51.7603967618" lon="-2.3735710792"><ele>125.87</ele><time>2024-01-17T10:14:29Z</time></trkpt><trkpt lat="51.7603737954" lon="-2.3735924531"><ele>125.87</ele><time>2024-01-17T10:14:50Z</time></trkpt><trkpt lat="51.7603095900" lon="-2.3736341950"><ele>125.87</ele><time>2024-01-17T10:15:09Z</time></trkpt><trkpt lat="51.7602106836" lon="-2.3737636954"><ele>125.87</ele><time>2024-01-17T10:15:25Z</time></trkpt><trkpt lat="51.7601515073" lon="-2.3738398030"><ele>125.87</ele><time>2024-01-17T10:15:33Z</time></trkpt><trkpt lat="51.7600625753" lon="-2.3739337642"><ele>126.19</ele><time>2024-01-17T10:15:48Z</time></trkpt><trkpt lat="51.7599273752" lon="-2.3740836326"><ele>126.27</ele><time>2024-01-17T10:16:08Z</time></trkpt><trkpt lat="51.7598008923" lon="-2.3742091097"><ele>126.16</ele><time>2024-01-17T10:16:25Z</time></trkpt><trkpt lat="51.7597344238" lon="-2.3743188288"><ele>126.33</ele><time>2024-01-17T10:16:45Z</time></trkpt><trkpt lat="51.7597324960" lon="-2.3743593134"><ele>126.07</ele><time>2024-01-17T10:16:59Z</time></trkpt><trkpt lat="51.7597141396" lon="-2.3744812701"><ele>127.01</ele><time>2024-01-17T10:17:21Z</time></trkpt><trkpt lat="51.7596615851" lon="-2.3745269515"><ele>127.04</ele><time>2024-01-17T10:17:27Z</time></trkpt><trkpt lat="51.7595685460" lon="-2.3745416198"><ele>126.22</ele><time>2024-01-17T10:17:46Z</time></trkpt><trkpt lat="51.7595590744" lon="-2.3745810986"><ele>126.22</ele><time>2024-01-17T10:18:10Z</time></trkpt><trkpt lat="51.7594750039" lon="-2.3745873850"><ele>126.22</ele><time>2024-01-17T10:18:28Z</time></trkpt><trkpt lat="51.7594544683" lon="-2.3745764047"><ele>126.22</ele><time>2024-01-17T10:18:51Z</time></trkpt><trkpt lat="51.7593919393" lon="-2.3746251035"><ele>126.22</ele><time>2024-01-17T10:19:15Z</time></trkpt><trkpt lat="51.7592795379" lon="-2.3746038135"><ele>126.22</ele><time>2024-01-17T10:19:39Z</time></trkpt><trkpt lat="51.7591190245" lon="-2.3746200744"><ele>126.22</ele><time>2024-01-17T10:20:01Z</time></trkpt><trkpt lat="51.7590378877" lon="-2.3746299651"><ele>127.90</ele><time>2024-01-17T10:20:10Z</time></trkpt><trkpt lat="51.7588577606" lon="-2.3746880516"><ele>126.94</ele><time>2024-01-17T10:20:31Z</time></trkpt><trkpt lat="51.7587684095" lon="-2.3746842798"><ele>126.72</ele><time>2024-01-17T10:20:49Z</time></trkpt><trkpt lat="51.7586913798" lon="-2.3746018019"><ele>126.85</ele><time>2024-01-17T10:21:07Z</time></trkpt><trkpt lat="51.7586226482" lon="-2.3747127783"><ele>127.18</ele><time>2024-01-17T10:21:25Z</time></trkpt><trkpt lat="51.7586427648" lon="-2.3748426978"><ele>128.08</ele><time>2024-01-17T10:21:46Z</time></trkpt><trkpt lat="51.7586679943" lon="-2.3750518262"><ele>128.41</ele><time>2024-01-17T10:22:03Z</time></trkpt><trkpt lat="51.7586820759" lon="-2.3751408421"><ele>128.25</ele><time>2024-01-17T10:22:20Z</time></trkpt><trkpt lat="51.7586740293" lon="-2.3751131818"><ele>126.78</ele><time>2024-01-17T10:22:36Z</time></trkpt><trkpt lat="51.7586700898" lon="-2.3751073144"><ele>126.09</ele><time>2024-01-17T10:22:38Z</time></trkpt><trkpt lat="51.7586659826" lon="-2.3750986811"><ele>130.09</ele><time>2024-01-17T10:22:42Z</time></trkpt><trkpt lat="51.7586974148" lon="-2.3750976752"><ele>127.69</ele><time>2024-01-17T10:23:08Z</time></trkpt><trkpt lat="51.7587197945" lon="-2.3751547560"><ele>123.38</ele><time>2024-01-17T10:23:23Z</time></trkpt><trkpt lat="51.7587272543" lon="-2.3751536664"><ele>122.63</ele><time>2024-01-17T10:23:25Z</time></trkpt><trkpt lat="51.7587459460" lon="-2.3751384951"><ele>125.72</ele><time>2024-01-17T10:23:27Z</time></trkpt><trkpt lat="51.7587580997" lon="-2.3751287721"><ele>129.60</ele><time>2024-01-17T10:23:29Z</time></trkpt><trkpt lat="51.7588183656" lon="-2.3751335498"><ele>126.92</ele><time>2024-01-17T10:23:47Z</time></trkpt><trkpt lat="51.7589625344" lon="-2.3751001060"><ele>126.43</ele><time>2024-01-17T10:24:05Z</time></trkpt><trkpt lat="51.7590962257" lon="-2.3750948254"><ele>126.23</ele><time>2024-01-17T10:24:23Z</time></trkpt><trkpt lat="51.7592246365" lon="-2.3750555143"><ele>126.54</ele><time>2024-01-17T10:24:41Z</time></trkpt><trkpt lat="51.7593582440" lon="-2.3750126828"><ele>126.42</ele><time>2024-01-17T10:24:58Z</time></trkpt><trkpt lat="51.7594798654" lon="-2.3749840166"><ele>126.52</ele><time>2024-01-17T10:25:16Z</time></trkpt><trkpt lat="51.7595144827" lon="-2.3749556858"><ele>127.00</ele><time>2024-01-17T10:25:37Z</time></trkpt><trkpt lat="51.7595888302" lon="-2.3749571946"><ele>122.72</ele><time>2024-01-17T10:25:50Z</time></trkpt><trkpt lat="51.7596023250" lon="-2.3749504052"><ele>127.83</ele><time>2024-01-17T10:25:55Z</time></trkpt><trkpt lat="51.7596199270" lon="-2.3749416042"><ele>130.85</ele><time>2024-01-17T10:25:58Z</time></trkpt><trkpt lat="51.7596381996" lon="-2.3749310430"><ele>127.59</ele><time>2024-01-17T10:26:01Z</time></trkpt><trkpt lat="51.7596705537" lon="-2.3749233317"><ele>125.66</ele><time>2024-01-17T10:26:04Z</time></trkpt><trkpt lat="51.7596953642" lon="-2.3749198951"><ele>128.95</ele><time>2024-01-17T10:26:07Z</time></trkpt><trkpt lat="51.7596991360" lon="-2.3749214038"><ele>129.61</ele><time>2024-01-17T10:26:09Z</time></trkpt><trkpt lat="51.7597043328" lon="-2.3749115970"><ele>127.42</ele><time>2024-01-17T10:26:14Z</time></trkpt><trkpt lat="51.7597972881" lon="-2.3749036342"><ele>124.52</ele><time>2024-01-17T10:26:34Z</time></trkpt><trkpt lat="51.7598281335" lon="-2.3749014549"><ele>128.06</ele><time>2024-01-17T10:26:37Z</time></trkpt><trkpt lat="51.7598474957" lon="-2.3748977669"><ele>128.92</ele><time>2024-01-17T10:26:39Z</time></trkpt><trkpt lat="51.7600032315" lon="-2.3748741299"><ele>127.17</ele><time>2024-01-17T10:26:58Z</time></trkpt><trkpt lat="51.7601411138" lon="-2.3748452123"><ele>127.24</ele><time>2024-01-17T10:27:16Z</time></trkpt><trkpt lat="51.7603120208" lon="-2.3748057336"><ele>127.18</ele><time>2024-01-17T10:27:38Z</time></trkpt><trkpt lat="51.7604384199" lon="-2.3747892212"><ele>127.29</ele><time>2024-01-17T10:27:58Z</time></trkpt><trkpt lat="51.7605208140" lon="-2.3747677635"><ele>127.28</ele><time>2024-01-17T10:28:20Z</time></trkpt><trkpt lat="51.7606955767" lon="-2.3747302964"><ele>127.09</ele><time>2024-01-17T10:28:42Z</time></trkpt><trkpt lat="51.7608271725" lon="-2.3747083358"><ele>126.90</ele><time>2024-01-17T10:29:01Z</time></trkpt><trkpt lat="51.7609756999" lon="-2.3746891413"><ele>126.96</ele><time>2024-01-17T10:29:21Z</time></trkpt><trkpt lat="51.7611155100" lon="-2.3746484052"><ele>127.05</ele><time>2024-01-17T10:29:39Z</time></trkpt><trkpt lat="51.7612831481" lon="-2.3746059928"><ele>126.86</ele><time>2024-01-17T10:30:00Z</time></trkpt><trkpt lat="51.7614204437" lon="-2.3745829426"><ele>126.52</ele><time>2024-01-17T10:30:19Z</time></trkpt><trkpt lat="51.7615299951" lon="-2.3745588027"><ele>126.99</ele><time>2024-01-17T10:30:35Z</time></trkpt><trkpt lat="51.7616561428" lon="-2.3745144624"><ele>126.64</ele><time>2024-01-17T10:30:53Z</time></trkpt><trkpt lat="51.7617436498" lon="-2.3745007999"><ele>126.87</ele><time>2024-01-17T10:31:14Z</time></trkpt><trkpt lat="51.7618482560" lon="-2.3744746484"><ele>126.87</ele><time>2024-01-17T10:31:32Z</time></trkpt><trkpt lat="51.7620210908" lon="-2.3744262848"><ele>126.88</ele><time>2024-01-17T10:31:54Z</time></trkpt><trkpt lat="51.7621405330" lon="-2.3744123708"><ele>126.90</ele><time>2024-01-17T10:32:11Z</time></trkpt><trkpt lat="51.7622716259" lon="-2.3743755743"><ele>126.70</ele><time>2024-01-17T10:32:28Z</time></trkpt><trkpt lat="51.7624100111" lon="-2.3743497580"><ele>126.72</ele><time>2024-01-17T10:32:47Z</time></trkpt><trkpt lat="51.7624367494" lon="-2.3743361793"><ele>127.14</ele><time>2024-01-17T10:33:00Z</time></trkpt><trkpt lat="51.7625206523" lon="-2.3743020650"><ele>126.90</ele><time>2024-01-17T10:33:16Z</time></trkpt><trkpt lat="51.7626537569" lon="-2.3742950242"><ele>127.11</ele><time>2024-01-17T10:33:35Z</time></trkpt><trkpt lat="51.7628399190" lon="-2.3742531147"><ele>126.62</ele><time>2024-01-17T10:34:01Z</time></trkpt><trkpt lat="51.7629816569" lon="-2.3742176592"><ele>126.62</ele><time>2024-01-17T10:34:20Z</time></trkpt><trkpt lat="51.7631440144" lon="-2.3741858080"><ele>126.62</ele><time>2024-01-17T10:34:41Z</time></trkpt><trkpt lat="51.7632806394" lon="-2.3741573934"><ele>127.00</ele><time>2024-01-17T10:35:00Z</time></trkpt><trkpt lat="51.7633718345" lon="-2.3741454072"><ele>126.98</ele><time>2024-01-17T10:35:16Z</time></trkpt><trkpt lat="51.7635292467" lon="-2.3741029948"><ele>126.93</ele><time>2024-01-17T10:35:35Z</time></trkpt><trkpt lat="51.7637100443" lon="-2.3740578163"><ele>126.95</ele><time>2024-01-17T10:35:59Z</time></trkpt><trkpt lat="51.7639137246" lon="-2.3740076926"><ele>127.16</ele><time>2024-01-17T10:36:25Z</time></trkpt><trkpt lat="51.7640726455" lon="-2.3739688843"><ele>127.37</ele><time>2024-01-17T10:36:46Z</time></trkpt><trkpt lat="51.7642344162" lon="-2.3739359435"><ele>127.11</ele><time>2024-01-17T10:37:07Z</time></trkpt><trkpt lat="51.7643887270" lon="-2.3739013262"><ele>127.37</ele><time>2024-01-17T10:37:26Z</time></trkpt><trkpt lat="51.7644572072" lon="-2.3738921061"><ele>127.85</ele><time>2024-01-17T10:37:45Z</time></trkpt><trkpt lat="51.7645541020" lon="-2.3738921061"><ele>127.69</ele><time>2024-01-17T10:38:03Z</time></trkpt><trkpt lat="51.7646742985" lon="-2.3738558125"><ele>127.41</ele><time>2024-01-17T10:38:21Z</time></trkpt><trkpt lat="51.7648009490" lon="-2.3738221172"><ele>127.36</ele><time>2024-01-17T10:38:40Z</time></trkpt><trkpt lat="51.7649614625" lon="-2.3737843148"><ele>127.36</ele><time>2024-01-17T10:38:59Z</time></trkpt><trkpt lat="51.7651199643" lon="-2.3737379629"><ele>127.36</ele><time>2024-01-17T10:39:21Z</time></trkpt><trkpt lat="51.7652623728" lon="-2.3737077042"><ele>127.36</ele><time>2024-01-17T10:39:40Z</time></trkpt><trkpt lat="51.7654229701" lon="-2.3736668006"><ele>127.14</ele><time>2024-01-17T10:40:02Z</time></trkpt><trkpt lat="51.7655535601" lon="-2.3736504558"><ele>127.00</ele><time>2024-01-17T10:40:20Z</time></trkpt><trkpt lat="51.7657570727" lon="-2.3735964764"><ele>126.96</ele><time>2024-01-17T10:40:46Z</time></trkpt><trkpt lat="51.7658387125" lon="-2.3735810537"><ele>126.78</ele><time>2024-01-17T10:41:01Z</time></trkpt><trkpt lat="51.7660290655" lon="-2.3735352047"><ele>126.58</ele><time>2024-01-17T10:41:26Z</time></trkpt><trkpt lat="51.7662181612" lon="-2.3734859191"><ele>126.72</ele><time>2024-01-17T10:41:50Z</time></trkpt><trkpt lat="51.7663991265" lon="-2.3734478652"><ele>127.01</ele><time>2024-01-17T10:42:13Z</time></trkpt><trkpt lat="51.7665613163" lon="-2.3734160978"><ele>127.13</ele><time>2024-01-17T10:42:35Z</time></trkpt><trkpt lat="51.7667057365" lon="-2.3733767029"><ele>127.07</ele><time>2024-01-17T10:42:53Z</time></trkpt><trkpt lat="51.7668406852" lon="-2.3733461928"><ele>127.01</ele><time>2024-01-17T10:43:11Z</time></trkpt><trkpt lat="51.7669729516" lon="-2.3733238131"><ele>126.58</ele><time>2024-01-17T10:43:30Z</time></trkpt><trkpt lat="51.7671032064" lon="-2.3732927162"><ele>126.71</ele><time>2024-01-17T10:43:47Z</time></trkpt><trkpt lat="51.7672455311" lon="-2.3732637987"><ele>127.03</ele><time>2024-01-17T10:44:07Z</time></trkpt><trkpt lat="51.7673881911" lon="-2.3732345458"><ele>126.86</ele><time>2024-01-17T10:44:27Z</time></trkpt><trkpt lat="51.7673937231" lon="-2.3732250743"><ele>124.86</ele><time>2024-01-17T10:44:43Z</time></trkpt><trkpt lat="51.7674009316" lon="-2.3732232302"><ele>129.15</ele><time>2024-01-17T10:44:47Z</time></trkpt><trkpt lat="51.7674347106" lon="-2.3732237332"><ele>127.20</ele><time>2024-01-17T10:45:13Z</time></trkpt><trkpt lat="51.7674938031" lon="-2.3732102383"><ele>127.20</ele><time>2024-01-17T10:45:37Z</time></trkpt><trkpt lat="51.7675348744" lon="-2.3731967434"><ele>127.20</ele><time>2024-01-17T10:46:03Z</time></trkpt><trkpt lat="51.7675895244" lon="-2.3731844220"><ele>127.20</ele><time>2024-01-17T10:46:27Z</time></trkpt><trkpt lat="51.7676470242" lon="-2.3731713463"><ele>127.20</ele><time>2024-01-17T10:46:52Z</time></trkpt><trkpt lat="51.7677313462" lon="-2.3731611203"><ele>132.70</ele><time>2024-01-17T10:47:07Z</time></trkpt><trkpt lat="51.7677388061" lon="-2.3731560074"><ele>132.32</ele><time>2024-01-17T10:47:08Z</time></trkpt><trkpt lat="51.7677683104" lon="-2.3731483798"><ele>129.12</ele><time>2024-01-17T10:47:12Z</time></trkpt><trkpt lat="51.7678916082" lon="-2.3731179535"><ele>127.59</ele><time>2024-01-17T10:47:28Z</time></trkpt><trkpt lat="51.7680461705" lon="-2.3730929755"><ele>127.00</ele><time>2024-01-17T10:47:48Z</time></trkpt><trkpt lat="51.7682115454" lon="-2.3730533291"><ele>127.51</ele><time>2024-01-17T10:48:10Z</time></trkpt><trkpt lat="51.7683357652" lon="-2.3730171192"><ele>127.26</ele><time>2024-01-17T10:48:28Z</time></trkpt><trkpt lat="51.7685076781" lon="-2.3729651514"><ele>127.51</ele><time>2024-01-17T10:48:51Z</time></trkpt><trkpt lat="51.7686142121" lon="-2.3729303665"><ele>127.87</ele><time>2024-01-17T10:49:11Z</time></trkpt><trkpt lat="51.7686776631" lon="-2.3729063943"><ele>127.78</ele><time>2024-01-17T10:49:27Z</time></trkpt><trkpt lat="51.7688365001" lon="-2.3728754651"><ele>127.62</ele><time>2024-01-17T10:49:47Z</time></trkpt><trkpt lat="51.7689401843" lon="-2.3728828412"><ele>127.88</ele><time>2024-01-17T10:50:08Z</time></trkpt><trkpt lat="51.7690227460" lon="-2.3728690110"><ele>128.22</ele><time>2024-01-17T10:50:27Z</time></trkpt><trkpt lat="51.7691462953" lon="-2.3728168756"><ele>128.22</ele><time>2024-01-17T10:50:49Z</time></trkpt><trkpt lat="51.7691571079" lon="-2.3728032969"><ele>128.22</ele><time>2024-01-17T10:51:09Z</time></trkpt><trkpt lat="51.7692175414" lon="-2.3727941606"><ele>128.22</ele><time>2024-01-17T10:51:29Z</time></trkpt><trkpt lat="51.7692591995" lon="-2.3728029616"><ele>128.22</ele><time>2024-01-17T10:51:51Z</time></trkpt><trkpt lat="51.7693505622" lon="-2.3727803305"><ele>128.22</ele><time>2024-01-17T10:52:11Z</time></trkpt><trkpt lat="51.7693707626" lon="-2.3727894668"><ele>128.22</ele><time>2024-01-17T10:52:34Z</time></trkpt><trkpt lat="51.7693815753" lon="-2.3728121817"><ele>128.22</ele><time>2024-01-17T10:52:56Z</time></trkpt><trkpt lat="51.7693881970" lon="-2.3727727868"><ele>128.22</ele><time>2024-01-17T10:53:22Z</time></trkpt><trkpt lat="51.7693983391" lon="-2.3727671709"><ele>128.22</ele><time>2024-01-17T10:53:45Z</time></trkpt><trkpt lat="51.7694009375" lon="-2.3727639019"><ele>128.22</ele><time>2024-01-17T10:54:17Z</time></trkpt><trkpt lat="51.7694010213" lon="-2.3727747146"><ele>128.22</ele><time>2024-01-17T10:54:51Z</time></trkpt><trkpt lat="51.7693985067" lon="-2.3727802467"><ele>128.22</ele><time>2024-01-17T10:55:17Z</time></trkpt><trkpt lat="51.7694161925" lon="-2.3727737926"><ele>128.22</ele><time>2024-01-17T10:55:42Z</time></trkpt><trkpt lat="51.7694132589" lon="-2.3727618065"><ele>128.22</ele><time>2024-01-17T10:56:12Z</time></trkpt><trkpt lat="51.7694000155" lon="-2.3727639019"><ele>128.22</ele><time>2024-01-17T10:56:39Z</time></trkpt><trkpt lat="51.7694061343" lon="-2.3727896344"><ele>128.22</ele><time>2024-01-17T10:57:09Z</time></trkpt><trkpt lat="51.7693976685" lon="-2.3728027102"><ele>128.22</ele><time>2024-01-17T10:57:38Z</time></trkpt><trkpt lat="51.7693788093" lon="-2.3727914784"><ele>128.22</ele><time>2024-01-17T10:58:13Z</time></trkpt><trkpt lat="51.7693397496" lon="-2.3727690149"><ele>128.22</ele><time>2024-01-17T10:58:39Z</time></trkpt><trkpt lat="51.7691659089" lon="-2.3728392553"><ele>128.07</ele><time>2024-01-17T10:58:58Z</time></trkpt><trkpt lat="51.7691487260" lon="-2.3728853557"><ele>127.86</ele><time>2024-01-17T10:59:03Z</time></trkpt><trkpt lat="51.7691481393" lon="-2.3729692586"><ele>126.73</ele><time>2024-01-17T10:59:25Z</time></trkpt><trkpt lat="51.7691545933" lon="-2.3730008584"><ele>126.69</ele><time>2024-01-17T10:59:51Z</time></trkpt><trkpt lat="51.7691609636" lon="-2.3729802389"><ele>126.85</ele><time>2024-01-17T11:00:19Z</time></trkpt><trkpt lat="51.7691622209" lon="-2.3729922250"><ele>126.70</ele><time>2024-01-17T11:00:44Z</time></trkpt><trkpt lat="51.7691385001" lon="-2.3729027063"><ele>127.79</ele><time>2024-01-17T11:01:05Z</time></trkpt><trkpt lat="51.7692672461" lon="-2.3728229105"><ele>127.78</ele><time>2024-01-17T11:01:22Z</time></trkpt><trkpt lat="51.7693419289" lon="-2.3728014529"><ele>127.71</ele><time>2024-01-17T11:01:43Z</time></trkpt><trkpt lat="51.7694595270" lon="-2.3726890516"><ele>127.62</ele><time>2024-01-17T11:02:07Z</time></trkpt><trkpt lat="51.7695768736" lon="-2.3726916499"><ele>125.56</ele><time>2024-01-17T11:02:24Z</time></trkpt><trkpt lat="51.7696022708" lon="-2.3726919014"><ele>128.56</ele><time>2024-01-17T11:02:27Z</time></trkpt><trkpt lat="51.7696264945" lon="-2.3726841062"><ele>130.20</ele><time>2024-01-17T11:02:30Z</time></trkpt><trkpt lat="51.7697011773" lon="-2.3726681806"><ele>128.07</ele><time>2024-01-17T11:02:47Z</time></trkpt><trkpt lat="51.7697999161" lon="-2.3726012092"><ele>127.96</ele><time>2024-01-17T11:03:09Z</time></trkpt><trkpt lat="51.7699568253" lon="-2.3726319708"><ele>127.80</ele><time>2024-01-17T11:03:26Z</time></trkpt><trkpt lat="51.7700811289" lon="-2.3726257682"><ele>127.82</ele><time>2024-01-17T11:03:45Z</time></trkpt><trkpt lat="51.7702139821" lon="-2.3725648317"><ele>127.72</ele><time>2024-01-17T11:04:03Z</time></trkpt><trkpt lat="51.7703853920" lon="-2.3725317232"><ele>127.88</ele><time>2024-01-17T11:04:22Z</time></trkpt><trkpt lat="51.7705439776" lon="-2.3724801745"><ele>127.97</ele><time>2024-01-17T11:04:42Z</time></trkpt><trkpt lat="51.7706878111" lon="-2.3724658415"><ele>127.98</ele><time>2024-01-17T11:05:02Z</time></trkpt><trkpt lat="51.7708313093" lon="-2.3724223394"><ele>127.80</ele><time>2024-01-17T11:05:20Z</time></trkpt><trkpt lat="51.7710036412" lon="-2.3723812681"><ele>127.80</ele><time>2024-01-17T11:05:42Z</time></trkpt><trkpt lat="51.7711697705" lon="-2.3723496683"><ele>128.04</ele><time>2024-01-17T11:06:03Z</time></trkpt><trkpt lat="51.7713084910" lon="-2.3722997960"><ele>127.37</ele><time>2024-01-17T11:06:21Z</time></trkpt><trkpt lat="51.7714091577" lon="-2.3722534440"><ele>128.05</ele><time>2024-01-17T11:06:41Z</time></trkpt><trkpt lat="51.7715010233" lon="-2.3722260352"><ele>128.35</ele><time>2024-01-17T11:07:01Z</time></trkpt><trkpt lat="51.7716726009" lon="-2.3721731454"><ele>128.25</ele><time>2024-01-17T11:07:21Z</time></trkpt><trkpt lat="51.7717090622" lon="-2.3721818626"><ele>128.50</ele><time>2024-01-17T11:07:39Z</time></trkpt><trkpt lat="51.7716984171" lon="-2.3722047452"><ele>128.50</ele><time>2024-01-17T11:08:03Z</time></trkpt><trkpt lat="51.7717111576" lon="-2.3721982911"><ele>128.50</ele><time>2024-01-17T11:08:30Z</time></trkpt><trkpt lat="51.7717518099" lon="-2.3721593991"><ele>121.28</ele><time>2024-01-17T11:08:39Z</time></trkpt><trkpt lat="51.7717510555" lon="-2.3721590638"><ele>119.99</ele><time>2024-01-17T11:08:41Z</time></trkpt><trkpt lat="51.7717595212" lon="-2.3721554596"><ele>125.98</ele><time>2024-01-17T11:08:44Z</time></trkpt><trkpt lat="51.7717656400" lon="-2.3721479997"><ele>124.27</ele><time>2024-01-17T11:08:45Z</time></trkpt><trkpt lat="51.7717932165" lon="-2.3721354268"><ele>129.07</ele><time>2024-01-17T11:08:48Z</time></trkpt><trkpt lat="51.7718989123" lon="-2.3720352631"><ele>128.62</ele><time>2024-01-17T11:09:06Z</time></trkpt><trkpt lat="51.7720519658" lon="-2.3719421402"><ele>128.00</ele><time>2024-01-17T11:09:26Z</time></trkpt><trkpt lat="51.7721961346" lon="-2.3718549684"><ele>128.04</ele><time>2024-01-17T11:09:46Z</time></trkpt><trkpt lat="51.7723214440" lon="-2.3717559781"><ele>128.38</ele><time>2024-01-17T11:10:05Z</time></trkpt><trkpt lat="51.7724340968" lon="-2.3716720752"><ele>128.48</ele><time>2024-01-17T11:10:26Z</time></trkpt><trkpt lat="51.7725841329" lon="-2.3715177644"><ele>128.11</ele><time>2024-01-17T11:10:47Z</time></trkpt><trkpt lat="51.7727208417" lon="-2.3714127392"><ele>128.14</ele><time>2024-01-17T11:11:06Z</time></trkpt><trkpt lat="51.7728546169" lon="-2.3712766171"><ele>128.38</ele><time>2024-01-17T11:11:25Z</time></trkpt><trkpt lat="51.7729571275" lon="-2.3711790517"><ele>128.33</ele><time>2024-01-17T11:11:40Z</time></trkpt><trkpt lat="51.7730708700" lon="-2.3710634653"><ele>128.44</ele><time>2024-01-17T11:12:00Z</time></trkpt><trkpt lat="51.7732016277" lon="-2.3709271755"><ele>128.19</ele><time>2024-01-17T11:12:19Z</time></trkpt><trkpt lat="51.7733317986" lon="-2.3707496468"><ele>128.49</ele><time>2024-01-17T11:12:40Z</time></trkpt><trkpt lat="51.7734535038" lon="-2.3705676757"><ele>128.49</ele><time>2024-01-17T11:12:59Z</time></trkpt><trkpt lat="51.7735405080" lon="-2.3704524245"><ele>128.49</ele><time>2024-01-17T11:13:17Z</time></trkpt><trkpt lat="51.7736738641" lon="-2.3702576291"><ele>128.49</ele><time>2024-01-17T11:13:39Z</time></trkpt><trkpt lat="51.7737980001" lon="-2.3700850457"><ele>128.49</ele><time>2024-01-17T11:13:58Z</time></trkpt><trkpt lat="51.7738211341" lon="-2.3699777573"><ele>128.49</ele><time>2024-01-17T11:14:18Z</time></trkpt><trkpt lat="51.7738547456" lon="-2.3698938545"><ele>125.03</ele><time>2024-01-17T11:14:25Z</time></trkpt><trkpt lat="51.7738604452" lon="-2.3698731512"><ele>125.03</ele><time>2024-01-17T11:14:26Z</time></trkpt><trkpt lat="51.7738653067" lon="-2.3698542081"><ele>128.99</ele><time>2024-01-17T11:14:27Z</time></trkpt><trkpt lat="51.7740241438" lon="-2.3696294893"><ele>128.39</ele><time>2024-01-17T11:14:50Z</time></trkpt><trkpt lat="51.7741222121" lon="-2.3694647849"><ele>128.00</ele><time>2024-01-17T11:15:09Z</time></trkpt><trkpt lat="51.7742349487" lon="-2.3692147527"><ele>128.09</ele><time>2024-01-17T11:15:31Z</time></trkpt><trkpt lat="51.7742880899" lon="-2.3690906167"><ele>127.81</ele><time>2024-01-17T11:15:50Z</time></trkpt><trkpt lat="51.7743564025" lon="-2.3689854238"><ele>128.01</ele><time>2024-01-17T11:16:06Z</time></trkpt><trkpt lat="51.7744003236" lon="-2.3688677419"><ele>127.95</ele><time>2024-01-17T11:16:22Z</time></trkpt><trkpt lat="51.7744718213" lon="-2.3686947394"><ele>127.92</ele><time>2024-01-17T11:16:41Z</time></trkpt><trkpt lat="51.7745169159" lon="-2.3686197214"><ele>127.92</ele><time>2024-01-17T11:16:56Z</time></trkpt><trkpt lat="51.7745866533" lon="-2.3685490619"><ele>127.92</ele><time>2024-01-17T11:17:16Z</time></trkpt><trkpt lat="51.7746546306" lon="-2.3683788255"><ele>127.92</ele><time>2024-01-17T11:17:40Z</time></trkpt><trkpt lat="51.7747509386" lon="-2.3680951819"><ele>127.92</ele><time>2024-01-17T11:18:02Z</time></trkpt><trkpt lat="51.7747607455" lon="-2.3680644203"><ele>127.92</ele><time>2024-01-17T11:18:25Z</time></trkpt><trkpt lat="51.7748223525" lon="-2.3679276276"><ele>127.92</ele><time>2024-01-17T11:19:02Z</time></trkpt><trkpt lat="51.7749412917" lon="-2.3677061778"><ele>127.92</ele><time>2024-01-17T11:19:25Z</time></trkpt><trkpt lat="51.7750504240" lon="-2.3675216921"><ele>127.92</ele><time>2024-01-17T11:19:44Z</time></trkpt><trkpt lat="51.7751259450" lon="-2.3673953768"><ele>127.92</ele><time>2024-01-17T11:20:04Z</time></trkpt><trkpt lat="51.7751525994" lon="-2.3672574107"><ele>127.92</ele><time>2024-01-17T11:20:24Z</time></trkpt><trkpt lat="51.7751883902" lon="-2.3671457637"><ele>127.92</ele><time>2024-01-17T11:20:44Z</time></trkpt><trkpt lat="51.7753193993" lon="-2.3669355456"><ele>127.92</ele><time>2024-01-17T11:21:04Z</time></trkpt><trkpt lat="51.7753746361" lon="-2.3668455239"><ele>127.92</ele><time>2024-01-17T11:21:23Z</time></trkpt><trkpt lat="51.7754196469" lon="-2.3667829949"><ele>127.92</ele><time>2024-01-17T11:21:54Z</time></trkpt><trkpt lat="51.7754966766" lon="-2.3665665742"><ele>127.92</ele><time>2024-01-17T11:22:16Z</time></trkpt><trkpt lat="51.7755798250" lon="-2.3664094135"><ele>127.92</ele><time>2024-01-17T11:22:33Z</time></trkpt><trkpt lat="51.7756053060" lon="-2.3663245887"><ele>127.92</ele><time>2024-01-17T11:22:59Z</time></trkpt><trkpt lat="51.7756768037" lon="-2.3661644105"><ele>127.92</ele><time>2024-01-17T11:23:15Z</time></trkpt><trkpt lat="51.7757043801" lon="-2.3660916556"><ele>127.92</ele><time>2024-01-17T11:23:29Z</time></trkpt><trkpt lat="51.7757818289" lon="-2.3659450561"><ele>127.92</ele><time>2024-01-17T11:23:47Z</time></trkpt><trkpt lat="51.7758861836" lon="-2.3657322396"><ele>127.92</ele><time>2024-01-17T11:24:09Z</time></trkpt><trkpt lat="51.7759958189" lon="-2.3655003123"><ele>127.92</ele><time>2024-01-17T11:24:32Z</time></trkpt><trkpt lat="51.7760895286" lon="-2.3653008230"><ele>127.92</ele><time>2024-01-17T11:24:53Z</time></trkpt><trkpt lat="51.7761384789" lon="-2.3651911039"><ele>127.92</ele><time>2024-01-17T11:25:11Z</time></trkpt><trkpt lat="51.7761310190" lon="-2.3651585821"><ele>127.92</ele><time>2024-01-17T11:25:33Z</time></trkpt><trkpt lat="51.7761855014" lon="-2.3650728352"><ele>127.92</ele><time>2024-01-17T11:25:50Z</time></trkpt><trkpt lat="51.7762791272" lon="-2.3648948036"><ele>127.92</ele><time>2024-01-17T11:26:13Z</time></trkpt><trkpt lat="51.7762767803" lon="-2.3649100587"><ele>127.92</ele><time>2024-01-17T11:26:42Z</time></trkpt><trkpt lat="51.7762244772" lon="-2.3650092166"><ele>127.92</ele><time>2024-01-17T11:26:59Z</time></trkpt><trkpt lat="51.7761493754" lon="-2.3651631922"><ele>127.92</ele><time>2024-01-17T11:27:19Z</time></trkpt><trkpt lat="51.7760591861" lon="-2.3653466720"><ele>127.92</ele><time>2024-01-17T11:27:40Z</time></trkpt><trkpt lat="51.7759616207" lon="-2.3655566387"><ele>127.92</ele><time>2024-01-17T11:28:02Z</time></trkpt><trkpt lat="51.7758771311" lon="-2.3657374363"><ele>127.92</ele><time>2024-01-17T11:28:21Z</time></trkpt><trkpt lat="51.7757944856" lon="-2.3659225088"><ele>127.92</ele><time>2024-01-17T11:28:40Z</time></trkpt><trkpt lat="51.7757138517" lon="-2.3660946731"><ele>127.92</ele><time>2024-01-17T11:28:58Z</time></trkpt><trkpt lat="51.7756282724" lon="-2.3662864510"><ele>127.92</ele><time>2024-01-17T11:29:17Z</time></trkpt><trkpt lat="51.7755406816" lon="-2.3664992675"><ele>127.92</ele><time>2024-01-17T11:29:38Z</time></trkpt><trkpt lat="51.7754715309" lon="-2.3666405864"><ele>127.92</ele><time>2024-01-17T11:29:55Z</time></trkpt><trkpt lat="51.7753864545" lon="-2.3667957354"><ele>127.92</ele><time>2024-01-17T11:30:12Z</time></trkpt><trkpt lat="51.7752994504" lon="-2.3670045286"><ele>127.92</ele><time>2024-01-17T11:30:33Z</time></trkpt><trkpt lat="51.7751749791" lon="-2.3671979830"><ele>127.92</ele><time>2024-01-17T11:30:53Z</time></trkpt><trkpt lat="51.7750995420" lon="-2.3673980590"><ele>127.92</ele><time>2024-01-17T11:31:14Z</time></trkpt><trkpt lat="51.7750009708" lon="-2.3676392063"><ele>127.92</ele><time>2024-01-17T11:31:35Z</time></trkpt><trkpt lat="51.7749075126" lon="-2.3678267933"><ele>127.92</ele><time>2024-01-17T11:31:54Z</time></trkpt><trkpt lat="51.7748064268" lon="-2.3680034000"><ele>127.92</ele><time>2024-01-17T11:32:13Z</time></trkpt><trkpt lat="51.7747801915" lon="-2.3680028133"><ele>127.92</ele><time>2024-01-17T11:32:33Z</time></trkpt><trkpt lat="51.7747414671" lon="-2.3681437131"><ele>127.92</ele><time>2024-01-17T11:32:56Z</time></trkpt><trkpt lat="51.7746220250" lon="-2.3683072440"><ele>127.92</ele><time>2024-01-17T11:33:17Z</time></trkpt><trkpt lat="51.7745274771" lon="-2.3685620539"><ele>127.92</ele><time>2024-01-17T11:33:40Z</time></trkpt><trkpt lat="51.7744647805" lon="-2.3687481321"><ele>127.92</ele><time>2024-01-17T11:33:57Z</time></trkpt><trkpt lat="51.7743854038" lon="-2.3689135909"><ele>127.92</ele><time>2024-01-17T11:34:12Z</time></trkpt><trkpt lat="51.7742586695" lon="-2.3690356314"><ele>127.92</ele><time>2024-01-17T11:34:30Z</time></trkpt><trkpt lat="51.7741775326" lon="-2.3688586056"><ele>127.92</ele><time>2024-01-17T11:34:50Z</time></trkpt><trkpt lat="51.7741230503" lon="-2.3686876148"><ele>127.92</ele><time>2024-01-17T11:35:08Z</time></trkpt><trkpt lat="51.7740918696" lon="-2.3685706034"><ele>127.92</ele><time>2024-01-17T11:35:29Z</time></trkpt><trkpt lat="51.7740239762" lon="-2.3681728821"><ele>127.92</ele><time>2024-01-17T11:35:54Z</time></trkpt><trkpt lat="51.7739631236" lon="-2.3679352552"><ele>127.92</ele><time>2024-01-17T11:36:13Z</time></trkpt><trkpt lat="51.7739434261" lon="-2.3678809404"><ele>127.92</ele><time>2024-01-17T11:36:34Z</time></trkpt><trkpt lat="51.7739392351" lon="-2.3678285535"><ele>127.92</ele><time>2024-01-17T11:36:54Z</time></trkpt><trkpt lat="51.7738801427" lon="-2.3676715605"><ele>127.92</ele><time>2024-01-17T11:37:15Z</time></trkpt><trkpt lat="51.7738153506" lon="-2.3675172497"><ele>127.92</ele><time>2024-01-17T11:37:35Z</time></trkpt><trkpt lat="51.7737429310" lon="-2.3672943749"><ele>127.92</ele><time>2024-01-17T11:37:53Z</time></trkpt><trkpt lat="51.7736786418" lon="-2.3671002500"><ele>127.92</ele><time>2024-01-17T11:38:13Z</time></trkpt><trkpt lat="51.7736029532" lon="-2.3668990843"><ele>127.92</ele><time>2024-01-17T11:38:35Z</time></trkpt><trkpt lat="51.7735034600" lon="-2.3666476272"><ele>127.92</ele><time>2024-01-17T11:38:57Z</time></trkpt><trkpt lat="51.7733765580" lon="-2.3662937433"><ele>127.92</ele><time>2024-01-17T11:39:25Z</time></trkpt><trkpt lat="51.7732851114" lon="-2.3660472315"><ele>127.92</ele><time>2024-01-17T11:39:48Z</time></trkpt><trkpt lat="51.7732044775" lon="-2.3658082634"><ele>127.92</ele><time>2024-01-17T11:40:05Z</time></trkpt><trkpt lat="51.7731597181" lon="-2.3656897433"><ele>128.15</ele><time>2024-01-17T11:40:21Z</time></trkpt><trkpt lat="51.7730833590" lon="-2.3654889967"><ele>128.18</ele><time>2024-01-17T11:40:41Z</time></trkpt><trkpt lat="51.7729898170" lon="-2.3652399704"><ele>128.65</ele><time>2024-01-17T11:41:03Z</time></trkpt><trkpt lat="51.7729467340" lon="-2.3651413154"><ele>128.41</ele><time>2024-01-17T11:41:21Z</time></trkpt><trkpt lat="51.7727913335" lon="-2.3648326937"><ele>128.41</ele><time>2024-01-17T11:41:47Z</time></trkpt><trkpt lat="51.7726966180" lon="-2.3645965755"><ele>128.41</ele><time>2024-01-17T11:42:09Z</time></trkpt><trkpt lat="51.7725879885" lon="-2.3643472139"><ele>128.41</ele><time>2024-01-17T11:42:29Z</time></trkpt><trkpt lat="51.7724708095" lon="-2.3642884567"><ele>128.41</ele><time>2024-01-17T11:42:46Z</time></trkpt><trkpt lat="51.7723854817" lon="-2.3642121814"><ele>128.41</ele><time>2024-01-17T11:43:01Z</time></trkpt><trkpt lat="51.7722587474" lon="-2.3639287893"><ele>128.42</ele><time>2024-01-17T11:43:22Z</time></trkpt><trkpt lat="51.7721284926" lon="-2.3637138773"><ele>128.42</ele><time>2024-01-17T11:43:41Z</time></trkpt><trkpt lat="51.7720070388" lon="-2.3635593988"><ele>128.42</ele><time>2024-01-17T11:44:00Z</time></trkpt><trkpt lat="51.7718990799" lon="-2.3635865562"><ele>128.42</ele><time>2024-01-17T11:44:20Z</time></trkpt><trkpt lat="51.7717520613" lon="-2.3636701237"><ele>128.47</ele><time>2024-01-17T11:44:36Z</time></trkpt><trkpt lat="51.7715436872" lon="-2.3638161365"><ele>128.95</ele><time>2024-01-17T11:44:59Z</time></trkpt><trkpt lat="51.7713446170" lon="-2.3639649153"><ele>128.77</ele><time>2024-01-17T11:45:21Z</time></trkpt><trkpt lat="51.7712802440" lon="-2.3640702758"><ele>129.27</ele><time>2024-01-17T11:45:40Z</time></trkpt><trkpt lat="51.7711746320" lon="-2.3641778994"><ele>129.23</ele><time>2024-01-17T11:45:59Z</time></trkpt><trkpt lat="51.7710641585" lon="-2.3643039633"><ele>129.11</ele><time>2024-01-17T11:46:17Z</time></trkpt><trkpt lat="51.7710203212" lon="-2.3643913027"><ele>130.13</ele><time>2024-01-17T11:46:37Z</time></trkpt><trkpt lat="51.7709766515" lon="-2.3644607048"><ele>127.11</ele><time>2024-01-17T11:46:51Z</time></trkpt><trkpt lat="51.7709225044" lon="-2.3645293526"><ele>130.73</ele><time>2024-01-17T11:46:57Z</time></trkpt><trkpt lat="51.7709124461" lon="-2.3645448592"><ele>131.40</ele><time>2024-01-17T11:46:59Z</time></trkpt><trkpt lat="51.7708201613" lon="-2.3646187037"><ele>129.37</ele><time>2024-01-17T11:47:17Z</time></trkpt><trkpt lat="51.7707417067" lon="-2.3647068813"><ele>129.42</ele><time>2024-01-17T11:47:36Z</time></trkpt><trkpt lat="51.7705442291" lon="-2.3648515530"><ele>129.09</ele><time>2024-01-17T11:48:00Z</time></trkpt><trkpt lat="51.7705241125" lon="-2.3649001680"><ele>131.54</ele><time>2024-01-17T11:48:12Z</time></trkpt><trkpt lat="51.7704731505" lon="-2.3649435025"><ele>128.45</ele><time>2024-01-17T11:48:25Z</time></trkpt><trkpt lat="51.7704554647" lon="-2.3649569135"><ele>126.69</ele><time>2024-01-17T11:48:28Z</time></trkpt><trkpt lat="51.7704310734" lon="-2.3649671394"><ele>129.79</ele><time>2024-01-17T11:48:32Z</time></trkpt><trkpt lat="51.7704203445" lon="-2.3649740126"><ele>130.58</ele><time>2024-01-17T11:48:34Z</time></trkpt><trkpt lat="51.7702776846" lon="-2.3650719132"><ele>129.11</ele><time>2024-01-17T11:48:55Z</time></trkpt><trkpt lat="51.7701475974" lon="-2.3651631083"><ele>129.11</ele><time>2024-01-17T11:49:13Z</time></trkpt><trkpt lat="51.7700912710" lon="-2.3651890922"><ele>130.34</ele><time>2024-01-17T11:49:30Z</time></trkpt><trkpt lat="51.7700460926" lon="-2.3652461730"><ele>129.78</ele><time>2024-01-17T11:49:54Z</time></trkpt><trkpt lat="51.7699045222" lon="-2.3653456662"><ele>129.78</ele><time>2024-01-17T11:50:13Z</time></trkpt><trkpt lat="51.7697801348" lon="-2.3654215224"><ele>129.78</ele><time>2024-01-17T11:50:30Z</time></trkpt><trkpt lat="51.7697321065" lon="-2.3654486798"><ele>129.78</ele><time>2024-01-17T11:50:37Z</time></trkpt><trkpt lat="51.7695698328" lon="-2.3655500170"><ele>129.78</ele><time>2024-01-17T11:50:58Z</time></trkpt><trkpt lat="51.7694549169" lon="-2.3656427208"><ele>129.78</ele><time>2024-01-17T11:51:20Z</time></trkpt><trkpt lat="51.7693006061" lon="-2.3657158948"><ele>129.78</ele><time>2024-01-17T11:51:39Z</time></trkpt><trkpt lat="51.7691768054" lon="-2.3658283800"><ele>129.78</ele><time>2024-01-17T11:51:59Z</time></trkpt><trkpt lat="51.7690111790" lon="-2.3659548629"><ele>129.75</ele><time>2024-01-17T11:52:20Z</time></trkpt><trkpt lat="51.7688703630" lon="-2.3661659192"><ele>129.38</ele><time>2024-01-17T11:52:43Z</time></trkpt><trkpt lat="51.7688561976" lon="-2.3662067391"><ele>129.54</ele><time>2024-01-17T11:53:02Z</time></trkpt><trkpt lat="51.7687996197" lon="-2.3662618082"><ele>127.79</ele><time>2024-01-17T11:53:23Z</time></trkpt><trkpt lat="51.7687292118" lon="-2.3663374130"><ele>130.80</ele><time>2024-01-17T11:53:33Z</time></trkpt><trkpt lat="51.7686025612" lon="-2.3664630577"><ele>129.29</ele><time>2024-01-17T11:53:54Z</time></trkpt><trkpt lat="51.7685564607" lon="-2.3665265925"><ele>129.29</ele><time>2024-01-17T11:54:20Z</time></trkpt><trkpt lat="51.7684296425" lon="-2.3666835018"><ele>129.37</ele><time>2024-01-17T11:54:39Z</time></trkpt><trkpt lat="51.7683176603" lon="-2.3667820729"><ele>129.60</ele><time>2024-01-17T11:54:58Z</time></trkpt><trkpt lat="51.7681543808" lon="-2.3669077177"><ele>129.73</ele><time>2024-01-17T11:55:19Z</time></trkpt><trkpt lat="51.7679888383" lon="-2.3670054507"><ele>129.45</ele><time>2024-01-17T11:55:38Z</time></trkpt><trkpt lat="51.7678784486" lon="-2.3670642916"><ele>129.37</ele><time>2024-01-17T11:55:56Z</time></trkpt><trkpt lat="51.7678344436" lon="-2.3670305964"><ele>129.58</ele><time>2024-01-17T11:56:19Z</time></trkpt><trkpt lat="51.7678100523" lon="-2.3669078853"><ele>129.09</ele><time>2024-01-17T11:56:34Z</time></trkpt><trkpt lat="51.7677867506" lon="-2.3668690771"><ele>129.28</ele><time>2024-01-17T11:56:46Z</time></trkpt><trkpt lat="51.7677747644" lon="-2.3669588473"><ele>129.33</ele><time>2024-01-17T11:56:50Z</time></trkpt><trkpt lat="51.7677320167" lon="-2.3670911975"><ele>129.51</ele><time>2024-01-17T11:57:07Z</time></trkpt><trkpt lat="51.7677183542" lon="-2.3671147507"><ele>129.50</ele><time>2024-01-17T11:57:09Z</time></trkpt><trkpt lat="51.7675509676" lon="-2.3673103005"><ele>128.18</ele><time>2024-01-17T11:57:29Z</time></trkpt><trkpt lat="51.7674869299" lon="-2.3673698958"><ele>130.03</ele><time>2024-01-17T11:57:35Z</time></trkpt><trkpt lat="51.7673836648" lon="-2.3675154056"><ele>129.55</ele><time>2024-01-17T11:57:55Z</time></trkpt><trkpt lat="51.7672788072" lon="-2.3675951175"><ele>128.13</ele><time>2024-01-17T11:58:16Z</time></trkpt><trkpt lat="51.7671724409" lon="-2.3676826246"><ele>127.97</ele><time>2024-01-17T11:58:28Z</time></trkpt><trkpt lat="51.7670757137" lon="-2.3677872308"><ele>129.31</ele><time>2024-01-17T11:58:44Z</time></trkpt><trkpt lat="51.7669997737" lon="-2.3679574672"><ele>130.31</ele><time>2024-01-17T11:59:02Z</time></trkpt><trkpt lat="51.7669417709" lon="-2.3680702876"><ele>130.31</ele><time>2024-01-17T11:59:18Z</time></trkpt><trkpt lat="51.7668573651" lon="-2.3681261949"><ele>130.31</ele><time>2024-01-17T11:59:28Z</time></trkpt><trkpt lat="51.7666898109" lon="-2.3680221755"><ele>130.31</ele><time>2024-01-17T11:59:45Z</time></trkpt><trkpt lat="51.7666648328" lon="-2.3679728061"><ele>130.31</ele><time>2024-01-17T12:00:00Z</time></trkpt><trkpt lat="51.7666634917" lon="-2.3679789249"><ele>130.31</ele><time>2024-01-17T12:00:21Z</time></trkpt></trkseg></trk></gpx>